Gaslog data for Cheap Chinese Scooters

Go Back   Gas Savers - Fuel Efficiency Forum > Garage > Cheap Chinese Scooters
Add Garage Entry Top Ten Entries Search the Garage


Welcome, non logged-in user
Your Garage


Gaslog data for Cheap Chinese Scooters
Date Distance Fuel Used Cost of Fuel Notes MPG(US)
11/17/2013 53.16 0.48 3.422011 110cc Chinese SuperCub clone. 110.7
11/17/2013 92.6 1.08 3.422008 250cc Chinese Reflex clone85.74
08/28/2013 56.2 0.43 3.562011 110cc Chinese SuperCub clone130.6
08/26/2013 51.6 0.41 3.492011 110cc Chinese SuperCub clone 16/38 gearing. Oil change #3, lube chain. 125.8
08/20/2013 53.4 0.42 3.592011 110cc Chinese SuperCub clone 16/38 gearing.127.1
08/14/2013 44.7 0.345 3.592011 110cc Chinese SuperCub clone 16/38 gearing. 2nd fillup in a day, small tank (0.85 gal. total). 129.5
08/14/2013 48.46 0.39 3.612011 110cc Chinese SuperCub clone 16/38 gearing. 124.2
08/11/2013 68.2 0.58 3.632011 110cc Chinese SuperCub clone change OEM sprockets from 14/38 to 16/38. 117.5
08/06/2013 52.6 0.51 3.562011 110cc Chinese SuperCub clone103.1
08/05/2013 98.2 1.29 3.852008 250cc Reflex clone. 76.12
07/31/2013 50.8 0.49 3.652011 110cc Chinese SuperCub clone103.6
06/17/2013 71.4 0.82 3.562008 250cc Reflex clone.87.07
04/13/2013 86.2 1.26 3.412008 250cc Reflex clone. First fillup 2013, scooter has only been ridden locally with long idle to warm up engine. 68.41
11/03/2012 98.6 1.12 3.67Highway speed commute between home & Philly. 88.03
09/24/2012 109.2 1.29 3.89 84.65
07/16/2012 134.2 1.42 3.39Replaced rear tire after 11k mi. since March 2008.94.50
05/16/2012 130.2 1.46 3.66 89.17
04/17/2012 116 1.36 3.93 85.29
01/25/2012 26.2 0.33 3.43Got it out for a short ride in the middle of winter, temp. in the low 50's in January.. crazy global warming.79.39
11/28/2011 87.6 1.12 3.26 78.21
11/02/2011 72.6 0.82 3.43Added Stabil, topped off the tank, get the scooter ready for winter storage. 88.53
10/12/2011 102.2 1.26 3.39 81.11
09/18/2011 86.2 0.95 3.59 90.73
08/10/2011 116.2 1.26 3.68 92.22
07/04/2011 159.6 1.75 3.57 91.20
06/19/2011 162.2 1.84 3.69 88.15
03/26/2011 131.2 1.72 3.52Scooter has been parked over the winter, mostly just keeping it running in the driveway every few weeks. 76.27
12/11/2010 152 1.78 3.01Possibly the last fuel up for this year, added StaBil in fuel also. 85.39
11/27/2010 86.7 1.01 2.89 85.84
11/05/2010 116 1.36 2.83 85.29
10/11/2010 121.6 1.36 2.74 89.41
09/15/2010 96.8 1.08 2.59 89.62
08/18/2010 115.2 1.35 2.67Scooter has been sitting a bit, other bikes get ridden more these days. 85.33
06/18/2010 132.2 1.48 2.61Rear tire is getting bald, time to rip out the drive train and inspect the rollers/CVT belt, etc..89.32
06/11/2010 104.2 1.22 2.54 85.40
05/25/2010 148.2 1.783 2.73Worked as a sag vehicle on a bike tour, carried passengers and their bicycles to service stations, seems to kill the fuel econ. The worn (under-inflated) rear tire doesn't help neither. 83.11
05/22/2010 106.2 1.22 2.83 87.04
05/19/2010 116.2 1.31 2.86 88.70
04/23/2010 122.1 1.41 2.71Been carrying my bicycle on the back of the scooter, the wind resistance is quite a bit more. 86.59
04/05/2010 112.8 1.28 2.62 88.12
03/16/2010 158.2 1.75 2.62 90.39
03/07/2010 116.3 1.32 2.65Scooter has not been ridden regularly over this winter, after this fillup, I changed the oil, pumped up the tires.. it should get better milage next time. 88.10
01/06/2010 126.2 1.36 2.62 92.79
11/23/2009 112 1.18 2.65 94.91
11/02/2009 116.2 1.38 2.62 84.20
10/21/2009 122.6 1.44 2.39 85.13
10/07/2009 162.2 1.68 2.31 96.54
09/25/2009 161.4 1.71 2.43 94.38
09/16/2009 146.2 1.57 2.69 93.12
08/24/2009 138.2 1.42 2.62Been riding my other bikes more than the scooter. 97.32
07/24/2009 167.2 1.675 2.43 99.82
07/22/2009 156.2 1.61 2.39 97.01
07/13/2009 126.2 1.31 2.47 96.33
07/06/2009 162 1.68 2.59 96.42
06/27/2009 102.6 1.03 2.56 99.61
06/22/2009 157.2 1.62 2.56 97.03
06/08/2009 68.3 0.71 2.41 96.19
05/30/2009 116.2 1.22 2.32 95.24
05/25/2009 168.7 1.72 2.41Got a rear flat right after fillup, the tire valve blew out entirely, had to ride 2 miles home with the flat.. 98.08
05/12/2009 182.6 1.86 2.26 98.17
05/09/2009 186.2 1.89 2.02 98.51
04/28/2009 166.8 1.76 2.01Heatwave (above 90's) for the past 3 days, scoot runs great in heat. 94.77
04/23/2009 186.6 1.96 2.01 95.20
04/16/2009 162.8 1.68 2.01 96.90
04/02/2009 162.7 1.68 2.02 96.84
03/29/2009 176.2 1.81 1.98Adjusted idle down to 11-1200 rpm, idles nicely once engine is warmed up to operating temperature, but early in the morning, the engine require the throttle to be open a little to stay idling. 97.34
03/23/2009 150.2 1.56 1.92 96.28
03/14/2009 162.2 1.76 1.91 92.15
03/04/2009 176.9 1.96 1.91 90.25
02/13/2009 150.6 1.72 1.97Long perior of idling combined with lower tire pressure made this the worse fuel economy ever on this scooter. Maybe it's time for oil/gear oil change. 87.55
02/09/2009 116.6 1.32 1.91 88.33
01/04/2009 112.6 1.28 1.62Spent more time at idle since the weather got cold. Engine still starts quickly, just need time to warm up before riding away. I also let out some air from the tires so they warm up quicker and allow bigger contact patch. 87.96
12/30/2008 162.3 1.72 1.59 94.36
12/17/2008 162.8 1.76 1.67 92.50
12/03/2008 186.6 1.98 1.62 94.24
11/22/2008 116 1.28 2.02 90.62
11/12/2008 162.6 1.69 2.06 96.21
11/05/2008 142.6 1.5 2.46 95.06
11/05/2008 142.6 1.5 2.46 95.06
10/31/2008 164.4 1.72 2.46 95.58
10/24/2008 162.4 1.7 2.62 95.52
10/20/2008 150.2 1.52 2.86 98.81
10/15/2008 148.6 1.51 2.99 98.41
10/08/2008 146.2 1.52 3.27 96.18
10/03/2008 162.4 1.72 3.4 94.41
09/29/2008 100.2 1.04 3.29 96.34
09/23/2008 178.8 1.82 3.52 98.24
09/18/2008 206.8 2.162 3.42 95.65
09/12/2008 154.2 1.628 3.42 94.71
09/07/2008 266.8 2.77 3.59I ran the tank almost dry.. now I know the full tank range on my scooter. 96.31
08/26/2008 158.8 1.68 3.52 94.52
08/24/2008 162.6 1.66 3.52pumped the tires up to 38 psi. riders a little rough, but fuel economy did go up. 97.95
08/20/2008 172.8 1.79 3.42 96.53
08/18/2008 158.6 1.66 3.62 95.54
08/13/2008 118 1.26 3.66Found a cheap place to gas up, so I'm filling up more often. 93.65
08/11/2008 108.6 1.16 3.76 93.62
08/09/2008 100.2 1.072 3.79 93.47
08/06/2008 149.6 1.66 3.85Tire pressure was down to 28 psi, instead of regular 36 psi. That could be the reason the fuel economy went down. 90.12
08/03/2008 162.8 1.68 3.82 96.90
07/29/2008 162.6 1.877 3.89Carried a passenger on my scoot for approx. 60 miles. Scewed up my fuel economy. 86.62
07/27/2008 153.3 1.59 3.91 96.41
07/23/2008 162.2 1.69 4.01 95.97
07/18/2008 160.2 1.72 3.77Gas in NJ was much cheaper than PA or NY. 93.13
07/14/2008 160.4 1.645 3.93Rode from Limerick, PA to Pearl River, NY.. stopped in Hoboken, NJ along the way. 160.4 miles.. the longest single trip riding, took little over 3:35 minutes. Most of the time I stayed under 55 mph (according to GPS), engine reved between 4000-5000 rpm for 90% of the time. Some bumper to bumper traffic on Rt.1 in north Jersey screwed up my fuel economy.. 97.50
07/12/2008 164 1.73 4.02 94.79
07/08/2008 159.7 1.72 4.02 92.84
07/02/2008 156.4 1.713 4.039 91.30
06/29/2008 158.7 1.743 4.059Did some off-pavement riding yesterday, approx. 4 miles of forest service road with parhpack dirt, 2.8 miles of fields with tall grass and other plantation. Total approx. 20 miles of off-pavement riding. 91.04
06/24/2008 168.9 1.87 4.03Been riding into Philadelphia inner city couple of times, more sustained high speed. 90.32
06/20/2008 153 1.6 3.95I mostly stop to fillup at around 150-180 miles on the tripmeter accumulation. It currently has over 1800 miles on the odometer, I just performed an oil change about 100 miles ago. 90% of the engine operation time the speed is between 30-55 mph, I never go above 65 mph.. all speed according to Garmin GPS unit installed onboard the scooter. 95.62
06/14/2008 150.3 1.62 3.92I purchased this scooter for $1699 shipped to my driveway. Received on March 26th, 2008. I didn't find this site to keep track of my fuel log until recently. 92.77


All times are GMT -6. The time now is 07:56 AM.


Copyright 2005-2008 GasSavers.Org